sensor_id;sensor_type;location;lat;lon;timestamp;P1;durP1;ratioP1;P2;durP2;ratioP2
19877;SDS011;10101;52.204;9.910;2022-12-11T00:02:18;26.17;;;13.03;;
19877;SDS011;10101;52.204;9.910;2022-12-11T00:04:45;27.00;;;11.93;;
19877;SDS011;10101;52.204;9.910;2022-12-11T00:07:12;25.73;;;12.80;;
19877;SDS011;10101;52.204;9.910;2022-12-11T00:09:38;23.77;;;12.47;;
19877;SDS011;10101;52.204;9.910;2022-12-11T00:12:05;29.93;;;14.00;;
19877;SDS011;10101;52.204;9.910;2022-12-11T00:14:32;26.60;;;12.93;;
19877;SDS011;10101;52.204;9.910;2022-12-11T00:17:00;26.03;;;13.00;;
19877;SDS011;10101;52.204;9.910;2022-12-11T00:19:28;27.00;;;13.57;;
19877;SDS011;10101;52.204;9.910;2022-12-11T00:21:55;24.17;;;13.13;;
19877;SDS011;10101;52.204;9.910;2022-12-11T00:24:22;24.37;;;12.57;;
19877;SDS011;10101;52.204;9.910;2022-12-11T00:26:49;24.03;;;12.20;;
19877;SDS011;10101;52.204;9.910;2022-12-11T00:29:15;23.03;;;11.90;;
19877;SDS011;10101;52.204;9.910;2022-12-11T00:31:42;23.80;;;12.17;;
19877;SDS011;10101;52.204;9.910;2022-12-11T00:34:09;23.40;;;11.60;;
19877;SDS011;10101;52.204;9.910;2022-12-11T00:36:37;25.10;;;12.10;;
19877;SDS011;10101;52.204;9.910;2022-12-11T00:39:05;23.50;;;12.33;;
19877;SDS011;10101;52.204;9.910;2022-12-11T00:41:32;23.77;;;12.40;;
19877;SDS011;10101;52.204;9.910;2022-12-11T00:43:59;26.43;;;12.20;;
19877;SDS011;10101;52.204;9.910;2022-12-11T00:46:26;27.13;;;12.80;;
19877;SDS011;10101;52.204;9.910;2022-12-11T00:48:52;23.03;;;11.53;;
19877;SDS011;10101;52.204;9.910;2022-12-11T00:51:19;23.20;;;12.73;;
19877;SDS011;10101;52.204;9.910;2022-12-11T00:53:47;24.67;;;12.57;;
19877;SDS011;10101;52.204;9.910;2022-12-11T00:56:15;22.80;;;12.00;;
19877;SDS011;10101;52.204;9.910;2022-12-11T00:58:43;23.13;;;11.97;;
19877;SDS011;10101;52.204;9.910;2022-12-11T01:01:10;21.90;;;11.07;;
19877;SDS011;10101;52.204;9.910;2022-12-11T01:03:38;26.63;;;11.83;;
19877;SDS011;10101;52.204;9.910;2022-12-11T01:06:05;23.80;;;11.77;;
19877;SDS011;10101;52.204;9.910;2022-12-11T01:08:33;23.30;;;12.03;;
19877;SDS011;10101;52.204;9.910;2022-12-11T01:11:02;21.70;;;10.77;;
19877;SDS011;10101;52.204;9.910;2022-12-11T01:13:29;24.07;;;11.83;;
19877;SDS011;10101;52.204;9.910;2022-12-11T01:15:55;25.80;;;12.57;;
19877;SDS011;10101;52.204;9.910;2022-12-11T01:18:22;22.93;;;12.00;;
19877;SDS011;10101;52.204;9.910;2022-12-11T01:20:49;25.10;;;12.67;;
19877;SDS011;10101;52.204;9.910;2022-12-11T01:23:16;25.97;;;12.93;;
19877;SDS011;10101;52.204;9.910;2022-12-11T01:25:43;26.10;;;12.40;;
19877;SDS011;10101;52.204;9.910;2022-12-11T01:28:11;21.47;;;11.57;;
19877;SDS011;10101;52.204;9.910;2022-12-11T01:30:39;24.57;;;11.70;;
19877;SDS011;10101;52.204;9.910;2022-12-11T01:33:07;23.30;;;12.53;;
19877;SDS011;10101;52.204;9.910;2022-12-11T01:35:33;21.97;;;11.77;;
19877;SDS011;10101;52.204;9.910;2022-12-11T01:38:00;22.37;;;11.50;;
19877;SDS011;10101;52.204;9.910;2022-12-11T01:40:27;24.37;;;12.17;;
19877;SDS011;10101;52.204;9.910;2022-12-11T01:42:54;25.40;;;12.07;;
19877;SDS011;10101;52.204;9.910;2022-12-11T01:45:27;27.07;;;12.87;;
19877;SDS011;10101;52.204;9.910;2022-12-11T01:48:04;22.90;;;11.50;;
19877;SDS011;10101;52.204;9.910;2022-12-11T01:50:35;25.30;;;12.40;;
19877;SDS011;10101;52.204;9.910;2022-12-11T01:53:06;24.60;;;12.90;;
19877;SDS011;10101;52.204;9.910;2022-12-11T01:55:35;21.43;;;11.73;;
19877;SDS011;10101;52.204;9.910;2022-12-11T01:58:04;20.70;;;11.50;;
19877;SDS011;10101;52.204;9.910;2022-12-11T02:00:34;23.70;;;12.97;;
19877;SDS011;10101;52.204;9.910;2022-12-11T02:03:01;23.53;;;12.20;;
19877;SDS011;10101;52.204;9.910;2022-12-11T02:05:28;24.27;;;12.37;;
19877;SDS011;10101;52.204;9.910;2022-12-11T02:07:55;22.47;;;11.90;;
19877;SDS011;10101;52.204;9.910;2022-12-11T02:10:27;26.40;;;13.67;;
19877;SDS011;10101;52.204;9.910;2022-12-11T02:13:04;22.00;;;11.73;;
19877;SDS011;10101;52.204;9.910;2022-12-11T02:15:36;22.30;;;11.70;;
19877;SDS011;10101;52.204;9.910;2022-12-11T02:18:13;24.20;;;13.07;;
19877;SDS011;10101;52.204;9.910;2022-12-11T02:20:46;26.37;;;12.73;;
19877;SDS011;10101;52.204;9.910;2022-12-11T02:26:35;24.97;;;13.67;;
19877;SDS011;10101;52.204;9.910;2022-12-11T02:29:21;24.53;;;13.10;;
19877;SDS011;10101;52.204;9.910;2022-12-11T02:31:55;27.03;;;12.60;;
19877;SDS011;10101;52.204;9.910;2022-12-11T02:34:28;23.47;;;12.90;;
19877;SDS011;10101;52.204;9.910;2022-12-11T02:37:02;23.20;;;12.20;;
19877;SDS011;10101;52.204;9.910;2022-12-11T02:39:31;25.83;;;12.53;;
19877;SDS011;10101;52.204;9.910;2022-12-11T02:42:01;25.80;;;12.53;;
19877;SDS011;10101;52.204;9.910;2022-12-11T02:44:31;23.43;;;12.10;;
19877;SDS011;10101;52.204;9.910;2022-12-11T02:47:00;23.50;;;12.67;;
19877;SDS011;10101;52.204;9.910;2022-12-11T02:49:30;27.23;;;13.27;;
19877;SDS011;10101;52.204;9.910;2022-12-11T02:51:58;23.57;;;12.87;;
19877;SDS011;10101;52.204;9.910;2022-12-11T02:54:27;25.03;;;13.27;;
19877;SDS011;10101;52.204;9.910;2022-12-11T02:56:57;25.83;;;13.20;;
19877;SDS011;10101;52.204;9.910;2022-12-11T02:59:30;22.83;;;12.63;;
19877;SDS011;10101;52.204;9.910;2022-12-11T03:02:01;20.97;;;12.67;;
19877;SDS011;10101;52.204;9.910;2022-12-11T03:04:29;23.70;;;12.30;;
19877;SDS011;10101;52.204;9.910;2022-12-11T03:06:57;23.90;;;12.57;;
19877;SDS011;10101;52.204;9.910;2022-12-11T03:09:35;23.67;;;12.60;;
19877;SDS011;10101;52.204;9.910;2022-12-11T03:12:03;25.40;;;12.47;;
19877;SDS011;10101;52.204;9.910;2022-12-11T03:14:30;26.17;;;13.33;;
19877;SDS011;10101;52.204;9.910;2022-12-11T03:16:59;28.33;;;12.87;;
19877;SDS011;10101;52.204;9.910;2022-12-11T03:19:33;25.67;;;12.43;;
19877;SDS011;10101;52.204;9.910;2022-12-11T03:22:05;24.27;;;12.73;;
19877;SDS011;10101;52.204;9.910;2022-12-11T03:24:38;22.73;;;12.23;;
19877;SDS011;10101;52.204;9.910;2022-12-11T03:27:09;21.13;;;11.97;;
19877;SDS011;10101;52.204;9.910;2022-12-11T03:29:43;24.50;;;12.63;;
19877;SDS011;10101;52.204;9.910;2022-12-11T03:32:20;24.07;;;12.70;;
19877;SDS011;10101;52.204;9.910;2022-12-11T03:34:50;25.63;;;12.67;;
19877;SDS011;10101;52.204;9.910;2022-12-11T03:37:22;24.03;;;11.73;;
19877;SDS011;10101;52.204;9.910;2022-12-11T03:39:51;23.00;;;11.90;;
19877;SDS011;10101;52.204;9.910;2022-12-11T03:42:23;19.00;;;11.07;;
19877;SDS011;10101;52.204;9.910;2022-12-11T03:44:52;25.07;;;12.33;;
19877;SDS011;10101;52.204;9.910;2022-12-11T03:47:23;21.13;;;12.17;;
19877;SDS011;10101;52.204;9.910;2022-12-11T03:49:52;21.77;;;12.10;;
19877;SDS011;10101;52.204;9.910;2022-12-11T03:52:20;24.17;;;12.63;;
19877;SDS011;10101;52.204;9.910;2022-12-11T03:54:48;22.83;;;12.60;;
19877;SDS011;10101;52.204;9.910;2022-12-11T03:57:17;23.13;;;11.93;;
19877;SDS011;10101;52.204;9.910;2022-12-11T03:59:46;21.67;;;12.00;;
19877;SDS011;10101;52.204;9.910;2022-12-11T04:02:13;21.93;;;12.10;;
19877;SDS011;10101;52.204;9.910;2022-12-11T04:04:41;22.80;;;12.57;;
19877;SDS011;10101;52.204;9.910;2022-12-11T04:07:08;21.50;;;11.63;;
19877;SDS011;10101;52.204;9.910;2022-12-11T04:09:35;21.50;;;11.87;;
19877;SDS011;10101;52.204;9.910;2022-12-11T04:12:02;24.47;;;12.83;;
19877;SDS011;10101;52.204;9.910;2022-12-11T04:14:29;25.93;;;12.47;;
19877;SDS011;10101;52.204;9.910;2022-12-11T04:17:13;22.87;;;12.57;;
19877;SDS011;10101;52.204;9.910;2022-12-11T04:20:02;26.67;;;12.50;;
19877;SDS011;10101;52.204;9.910;2022-12-11T04:22:48;23.23;;;11.47;;
19877;SDS011;10101;52.204;9.910;2022-12-11T04:25:32;22.67;;;12.07;;
19877;SDS011;10101;52.204;9.910;2022-12-11T04:27:59;23.97;;;12.30;;
19877;SDS011;10101;52.204;9.910;2022-12-11T04:30:26;22.97;;;12.23;;
19877;SDS011;10101;52.204;9.910;2022-12-11T04:32:53;21.70;;;11.57;;
19877;SDS011;10101;52.204;9.910;2022-12-11T04:35:21;20.70;;;11.37;;
19877;SDS011;10101;52.204;9.910;2022-12-11T04:37:48;23.30;;;11.17;;
19877;SDS011;10101;52.204;9.910;2022-12-11T04:40:16;23.93;;;12.77;;
19877;SDS011;10101;52.204;9.910;2022-12-11T04:42:43;21.87;;;11.17;;
19877;SDS011;10101;52.204;9.910;2022-12-11T04:45:11;20.33;;;10.77;;
19877;SDS011;10101;52.204;9.910;2022-12-11T04:47:39;22.43;;;12.33;;
19877;SDS011;10101;52.204;9.910;2022-12-11T04:50:07;22.63;;;11.43;;
19877;SDS011;10101;52.204;9.910;2022-12-11T04:52:36;21.50;;;11.33;;
19877;SDS011;10101;52.204;9.910;2022-12-11T04:55:03;26.33;;;13.37;;
19877;SDS011;10101;52.204;9.910;2022-12-11T04:57:31;21.07;;;11.00;;
19877;SDS011;10101;52.204;9.910;2022-12-11T04:59:58;22.73;;;12.50;;
19877;SDS011;10101;52.204;9.910;2022-12-11T05:02:26;26.40;;;12.90;;
19877;SDS011;10101;52.204;9.910;2022-12-11T05:04:52;23.47;;;12.13;;
19877;SDS011;10101;52.204;9.910;2022-12-11T05:07:19;22.10;;;11.57;;
19877;SDS011;10101;52.204;9.910;2022-12-11T05:09:47;23.50;;;12.63;;
19877;SDS011;10101;52.204;9.910;2022-12-11T05:12:14;21.43;;;11.47;;
19877;SDS011;10101;52.204;9.910;2022-12-11T05:14:41;19.67;;;11.63;;
19877;SDS011;10101;52.204;9.910;2022-12-11T05:17:08;21.47;;;11.17;;
19877;SDS011;10101;52.204;9.910;2022-12-11T05:19:35;22.47;;;11.20;;
19877;SDS011;10101;52.204;9.910;2022-12-11T05:22:02;23.37;;;12.23;;
19877;SDS011;10101;52.204;9.910;2022-12-11T05:24:28;23.50;;;12.43;;
19877;SDS011;10101;52.204;9.910;2022-12-11T05:26:56;22.23;;;12.17;;
19877;SDS011;10101;52.204;9.910;2022-12-11T05:29:23;22.03;;;11.63;;
19877;SDS011;10101;52.204;9.910;2022-12-11T05:31:50;23.87;;;12.57;;
19877;SDS011;10101;52.204;9.910;2022-12-11T05:34:16;22.73;;;11.27;;
19877;SDS011;10101;52.204;9.910;2022-12-11T05:36:43;24.37;;;12.13;;
19877;SDS011;10101;52.204;9.910;2022-12-11T05:39:10;23.73;;;12.00;;
19877;SDS011;10101;52.204;9.910;2022-12-11T05:41:37;25.10;;;12.53;;
19877;SDS011;10101;52.204;9.910;2022-12-11T05:44:05;20.07;;;10.43;;
19877;SDS011;10101;52.204;9.910;2022-12-11T05:46:32;23.20;;;12.37;;
19877;SDS011;10101;52.204;9.910;2022-12-11T05:49:00;21.73;;;11.47;;
19877;SDS011;10101;52.204;9.910;2022-12-11T05:51:28;23.13;;;11.53;;
19877;SDS011;10101;52.204;9.910;2022-12-11T05:53:55;24.60;;;12.07;;
19877;SDS011;10101;52.204;9.910;2022-12-11T05:56:23;21.30;;;11.57;;
19877;SDS011;10101;52.204;9.910;2022-12-11T05:58:52;20.00;;;11.17;;
19877;SDS011;10101;52.204;9.910;2022-12-11T06:01:22;22.07;;;12.03;;
19877;SDS011;10101;52.204;9.910;2022-12-11T06:03:51;24.80;;;12.07;;
19877;SDS011;10101;52.204;9.910;2022-12-11T06:06:18;23.43;;;12.20;;
19877;SDS011;10101;52.204;9.910;2022-12-11T06:08:48;22.73;;;11.77;;
19877;SDS011;10101;52.204;9.910;2022-12-11T06:11:14;24.50;;;12.00;;
19877;SDS011;10101;52.204;9.910;2022-12-11T06:13:41;21.13;;;11.70;;
19877;SDS011;10101;52.204;9.910;2022-12-11T06:16:08;22.83;;;12.03;;
19877;SDS011;10101;52.204;9.910;2022-12-11T06:18:36;21.87;;;10.90;;
19877;SDS011;10101;52.204;9.910;2022-12-11T06:21:11;22.77;;;11.83;;
19877;SDS011;10101;52.204;9.910;2022-12-11T06:23:39;20.63;;;11.40;;
19877;SDS011;10101;52.204;9.910;2022-12-11T06:26:06;25.27;;;11.93;;
19877;SDS011;10101;52.204;9.910;2022-12-11T06:28:33;26.47;;;13.07;;
19877;SDS011;10101;52.204;9.910;2022-12-11T06:31:00;21.83;;;11.83;;
19877;SDS011;10101;52.204;9.910;2022-12-11T06:33:27;25.67;;;13.17;;
19877;SDS011;10101;52.204;9.910;2022-12-11T06:35:55;22.40;;;12.70;;
19877;SDS011;10101;52.204;9.910;2022-12-11T06:38:25;23.73;;;12.87;;
19877;SDS011;10101;52.204;9.910;2022-12-11T06:40:55;21.37;;;11.60;;
19877;SDS011;10101;52.204;9.910;2022-12-11T06:43:22;22.13;;;11.53;;
19877;SDS011;10101;52.204;9.910;2022-12-11T06:45:49;20.30;;;11.67;;
19877;SDS011;10101;52.204;9.910;2022-12-11T06:48:16;27.93;;;13.57;;
19877;SDS011;10101;52.204;9.910;2022-12-11T06:50:43;22.30;;;11.90;;
19877;SDS011;10101;52.204;9.910;2022-12-11T06:53:12;20.10;;;11.07;;
19877;SDS011;10101;52.204;9.910;2022-12-11T06:55:40;24.40;;;13.60;;
19877;SDS011;10101;52.204;9.910;2022-12-11T06:58:07;20.07;;;11.57;;
19877;SDS011;10101;52.204;9.910;2022-12-11T07:00:34;19.80;;;11.17;;
19877;SDS011;10101;52.204;9.910;2022-12-11T07:03:02;22.57;;;12.83;;
19877;SDS011;10101;52.204;9.910;2022-12-11T07:05:30;21.40;;;11.53;;
19877;SDS011;10101;52.204;9.910;2022-12-11T07:07:57;19.57;;;11.37;;
19877;SDS011;10101;52.204;9.910;2022-12-11T07:10:25;21.13;;;12.10;;
19877;SDS011;10101;52.204;9.910;2022-12-11T07:12:52;20.27;;;11.57;;
19877;SDS011;10101;52.204;9.910;2022-12-11T07:15:19;22.43;;;11.90;;
19877;SDS011;10101;52.204;9.910;2022-12-11T07:17:46;23.50;;;11.83;;
19877;SDS011;10101;52.204;9.910;2022-12-11T07:20:13;25.30;;;12.80;;
19877;SDS011;10101;52.204;9.910;2022-12-11T07:22:41;20.23;;;11.40;;
19877;SDS011;10101;52.204;9.910;2022-12-11T07:25:08;24.50;;;12.13;;
19877;SDS011;10101;52.204;9.910;2022-12-11T07:27:36;22.73;;;12.30;;
19877;SDS011;10101;52.204;9.910;2022-12-11T07:30:03;21.57;;;12.07;;
19877;SDS011;10101;52.204;9.910;2022-12-11T07:32:30;19.50;;;11.37;;
19877;SDS011;10101;52.204;9.910;2022-12-11T07:34:57;25.03;;;13.13;;
19877;SDS011;10101;52.204;9.910;2022-12-11T07:37:24;20.57;;;11.23;;
19877;SDS011;10101;52.204;9.910;2022-12-11T07:39:50;21.87;;;11.40;;
19877;SDS011;10101;52.204;9.910;2022-12-11T07:42:17;22.10;;;12.63;;
19877;SDS011;10101;52.204;9.910;2022-12-11T07:44:45;22.90;;;12.27;;
19877;SDS011;10101;52.204;9.910;2022-12-11T07:47:12;24.73;;;13.00;;
19877;SDS011;10101;52.204;9.910;2022-12-11T07:49:39;19.97;;;11.17;;
19877;SDS011;10101;52.204;9.910;2022-12-11T07:52:05;25.20;;;12.20;;
19877;SDS011;10101;52.204;9.910;2022-12-11T07:54:32;22.73;;;12.40;;
19877;SDS011;10101;52.204;9.910;2022-12-11T07:56:59;23.20;;;12.10;;
19877;SDS011;10101;52.204;9.910;2022-12-11T07:59:25;23.97;;;12.40;;
19877;SDS011;10101;52.204;9.910;2022-12-11T08:01:53;25.00;;;12.40;;
19877;SDS011;10101;52.204;9.910;2022-12-11T08:04:20;22.10;;;11.40;;
19877;SDS011;10101;52.204;9.910;2022-12-11T08:06:47;26.33;;;13.17;;
19877;SDS011;10101;52.204;9.910;2022-12-11T08:09:14;22.07;;;12.13;;
19877;SDS011;10101;52.204;9.910;2022-12-11T08:11:40;21.90;;;11.97;;
19877;SDS011;10101;52.204;9.910;2022-12-11T08:14:07;22.90;;;11.73;;
19877;SDS011;10101;52.204;9.910;2022-12-11T08:16:34;23.13;;;12.63;;
19877;SDS011;10101;52.204;9.910;2022-12-11T08:19:03;23.33;;;12.50;;
19877;SDS011;10101;52.204;9.910;2022-12-11T08:21:30;22.80;;;12.23;;
19877;SDS011;10101;52.204;9.910;2022-12-11T08:23:56;21.13;;;10.97;;
19877;SDS011;10101;52.204;9.910;2022-12-11T08:26:24;18.67;;;11.47;;
19877;SDS011;10101;52.204;9.910;2022-12-11T08:28:52;22.80;;;12.23;;
19877;SDS011;10101;52.204;9.910;2022-12-11T08:31:19;21.30;;;11.33;;
19877;SDS011;10101;52.204;9.910;2022-12-11T08:33:46;21.90;;;11.90;;
19877;SDS011;10101;52.204;9.910;2022-12-11T08:36:16;23.03;;;12.10;;
19877;SDS011;10101;52.204;9.910;2022-12-11T08:38:44;22.60;;;12.10;;
19877;SDS011;10101;52.204;9.910;2022-12-11T08:41:12;21.20;;;11.63;;
19877;SDS011;10101;52.204;9.910;2022-12-11T08:43:39;21.27;;;12.67;;
19877;SDS011;10101;52.204;9.910;2022-12-11T08:46:07;22.33;;;11.97;;
19877;SDS011;10101;52.204;9.910;2022-12-11T08:48:34;23.13;;;12.53;;
19877;SDS011;10101;52.204;9.910;2022-12-11T08:51:01;20.37;;;11.77;;
19877;SDS011;10101;52.204;9.910;2022-12-11T08:53:31;20.57;;;12.03;;
19877;SDS011;10101;52.204;9.910;2022-12-11T08:56:01;19.30;;;11.27;;
19877;SDS011;10101;52.204;9.910;2022-12-11T08:58:28;23.37;;;12.50;;
19877;SDS011;10101;52.204;9.910;2022-12-11T09:00:55;24.33;;;11.57;;
19877;SDS011;10101;52.204;9.910;2022-12-11T09:03:22;24.57;;;12.03;;
19877;SDS011;10101;52.204;9.910;2022-12-11T09:05:49;21.97;;;11.83;;
19877;SDS011;10101;52.204;9.910;2022-12-11T09:08:16;20.17;;;11.73;;
19877;SDS011;10101;52.204;9.910;2022-12-11T09:10:44;21.63;;;12.13;;
19877;SDS011;10101;52.204;9.910;2022-12-11T09:13:11;22.10;;;11.67;;
19877;SDS011;10101;52.204;9.910;2022-12-11T09:15:39;23.27;;;12.00;;
19877;SDS011;10101;52.204;9.910;2022-12-11T09:18:06;19.37;;;11.70;;
19877;SDS011;10101;52.204;9.910;2022-12-11T09:20:33;22.77;;;11.53;;
19877;SDS011;10101;52.204;9.910;2022-12-11T09:23:00;21.13;;;11.13;;
19877;SDS011;10101;52.204;9.910;2022-12-11T09:25:27;23.37;;;11.97;;
19877;SDS011;10101;52.204;9.910;2022-12-11T09:27:55;21.63;;;11.33;;
19877;SDS011;10101;52.204;9.910;2022-12-11T09:30:22;21.07;;;11.67;;
19877;SDS011;10101;52.204;9.910;2022-12-11T09:32:49;22.57;;;11.97;;
19877;SDS011;10101;52.204;9.910;2022-12-11T09:35:17;20.57;;;11.50;;
19877;SDS011;10101;52.204;9.910;2022-12-11T09:37:43;23.63;;;12.33;;
19877;SDS011;10101;52.204;9.910;2022-12-11T09:40:10;23.37;;;12.27;;
19877;SDS011;10101;52.204;9.910;2022-12-11T09:42:43;21.87;;;11.50;;
19877;SDS011;10101;52.204;9.910;2022-12-11T09:45:15;23.00;;;11.47;;
19877;SDS011;10101;52.204;9.910;2022-12-11T09:47:43;23.90;;;11.97;;
19877;SDS011;10101;52.204;9.910;2022-12-11T09:50:14;21.93;;;11.53;;
19877;SDS011;10101;52.204;9.910;2022-12-11T09:52:52;23.50;;;11.40;;
19877;SDS011;10101;52.204;9.910;2022-12-11T09:55:28;20.80;;;12.13;;
19877;SDS011;10101;52.204;9.910;2022-12-11T09:58:01;21.33;;;11.73;;
19877;SDS011;10101;52.204;9.910;2022-12-11T10:00:36;19.67;;;11.33;;
19877;SDS011;10101;52.204;9.910;2022-12-11T10:05:54;19.50;;;11.13;;
19877;SDS011;10101;52.204;9.910;2022-12-11T10:08:27;22.07;;;11.40;;
19877;SDS011;10101;52.204;9.910;2022-12-11T10:11:00;21.47;;;11.10;;
19877;SDS011;10101;52.204;9.910;2022-12-11T10:13:35;20.57;;;11.50;;
19877;SDS011;10101;52.204;9.910;2022-12-11T10:16:11;20.17;;;11.00;;
19877;SDS011;10101;52.204;9.910;2022-12-11T10:18:50;21.40;;;12.00;;
19877;SDS011;10101;52.204;9.910;2022-12-11T10:21:17;20.23;;;10.93;;
19877;SDS011;10101;52.204;9.910;2022-12-11T10:23:45;22.57;;;11.87;;
19877;SDS011;10101;52.204;9.910;2022-12-11T10:26:19;20.17;;;11.57;;
19877;SDS011;10101;52.204;9.910;2022-12-11T10:28:46;22.30;;;11.87;;
19877;SDS011;10101;52.204;9.910;2022-12-11T10:31:16;20.40;;;11.50;;
19877;SDS011;10101;52.204;9.910;2022-12-11T10:33:48;22.63;;;12.07;;
19877;SDS011;10101;52.204;9.910;2022-12-11T10:36:24;20.83;;;10.70;;
19877;SDS011;10101;52.204;9.910;2022-12-11T10:38:55;22.03;;;12.03;;
19877;SDS011;10101;52.204;9.910;2022-12-11T10:41:23;21.73;;;11.40;;
19877;SDS011;10101;52.204;9.910;2022-12-11T10:43:57;19.90;;;11.13;;
19877;SDS011;10101;52.204;9.910;2022-12-11T10:46:27;19.63;;;11.00;;
19877;SDS011;10101;52.204;9.910;2022-12-11T10:48:57;19.67;;;11.70;;
19877;SDS011;10101;52.204;9.910;2022-12-11T10:51:33;18.47;;;11.00;;
19877;SDS011;10101;52.204;9.910;2022-12-11T10:54:03;21.30;;;11.50;;
19877;SDS011;10101;52.204;9.910;2022-12-11T10:56:34;24.27;;;11.83;;
19877;SDS011;10101;52.204;9.910;2022-12-11T10:59:02;23.43;;;12.30;;
19877;SDS011;10101;52.204;9.910;2022-12-11T11:01:31;24.57;;;12.37;;
19877;SDS011;10101;52.204;9.910;2022-12-11T11:03:58;21.03;;;11.87;;
19877;SDS011;10101;52.204;9.910;2022-12-11T11:06:28;22.83;;;11.90;;
19877;SDS011;10101;52.204;9.910;2022-12-11T11:08:56;20.57;;;11.97;;
19877;SDS011;10101;52.204;9.910;2022-12-11T11:11:26;22.37;;;11.93;;
19877;SDS011;10101;52.204;9.910;2022-12-11T11:14:04;20.60;;;11.10;;
19877;SDS011;10101;52.204;9.910;2022-12-11T11:16:33;22.13;;;12.10;;
19877;SDS011;10101;52.204;9.910;2022-12-11T11:19:02;20.30;;;11.33;;
19877;SDS011;10101;52.204;9.910;2022-12-11T11:21:29;19.73;;;10.47;;
19877;SDS011;10101;52.204;9.910;2022-12-11T11:23:59;18.63;;;10.20;;
19877;SDS011;10101;52.204;9.910;2022-12-11T11:26:26;17.80;;;10.60;;
19877;SDS011;10101;52.204;9.910;2022-12-11T11:28:58;21.07;;;11.37;;
19877;SDS011;10101;52.204;9.910;2022-12-11T11:31:29;21.57;;;11.80;;
19877;SDS011;10101;52.204;9.910;2022-12-11T11:33:59;19.77;;;11.00;;
19877;SDS011;10101;52.204;9.910;2022-12-11T11:36:31;18.77;;;10.43;;
19877;SDS011;10101;52.204;9.910;2022-12-11T11:39:05;19.80;;;10.33;;
19877;SDS011;10101;52.204;9.910;2022-12-11T11:41:43;17.87;;;10.10;;
19877;SDS011;10101;52.204;9.910;2022-12-11T11:44:17;20.27;;;10.97;;
19877;SDS011;10101;52.204;9.910;2022-12-11T11:46:52;21.93;;;11.47;;
19877;SDS011;10101;52.204;9.910;2022-12-11T11:49:27;24.43;;;12.20;;
19877;SDS011;10101;52.204;9.910;2022-12-11T11:52:11;21.80;;;10.60;;
19877;SDS011;10101;52.204;9.910;2022-12-11T11:54:42;24.33;;;11.17;;
19877;SDS011;10101;52.204;9.910;2022-12-11T11:57:16;26.17;;;12.90;;
19877;SDS011;10101;52.204;9.910;2022-12-11T11:59:48;23.33;;;11.20;;
19877;SDS011;10101;52.204;9.910;2022-12-11T12:02:18;20.27;;;11.57;;
19877;SDS011;10101;52.204;9.910;2022-12-11T12:04:47;33.07;;;19.67;;
19877;SDS011;10101;52.204;9.910;2022-12-11T12:07:22;24.53;;;11.80;;
19877;SDS011;10101;52.204;9.910;2022-12-11T12:09:55;20.57;;;10.50;;
19877;SDS011;10101;52.204;9.910;2022-12-11T12:12:31;21.30;;;10.57;;
19877;SDS011;10101;52.204;9.910;2022-12-11T12:15:11;29.20;;;16.27;;
19877;SDS011;10101;52.204;9.910;2022-12-11T12:17:47;20.50;;;11.50;;
19877;SDS011;10101;52.204;9.910;2022-12-11T12:20:20;19.23;;;10.60;;
19877;SDS011;10101;52.204;9.910;2022-12-11T12:22:59;35.53;;;19.83;;
19877;SDS011;10101;52.204;9.910;2022-12-11T12:25:40;21.83;;;11.40;;
19877;SDS011;10101;52.204;9.910;2022-12-11T12:28:14;22.80;;;11.93;;
19877;SDS011;10101;52.204;9.910;2022-12-11T12:30:57;21.50;;;11.10;;
19877;SDS011;10101;52.204;9.910;2022-12-11T12:33:38;17.87;;;9.50;;
19877;SDS011;10101;52.204;9.910;2022-12-11T12:36:20;18.73;;;10.30;;
19877;SDS011;10101;52.204;9.910;2022-12-11T12:38:52;20.77;;;10.73;;
19877;SDS011;10101;52.204;9.910;2022-12-11T12:41:23;18.80;;;8.30;;
19877;SDS011;10101;52.204;9.910;2022-12-11T12:46:50;19.33;;;10.30;;
19877;SDS011;10101;52.204;9.910;2022-12-11T12:49:26;14.63;;;7.73;;
19877;SDS011;10101;52.204;9.910;2022-12-11T12:52:00;17.00;;;7.67;;
19877;SDS011;10101;52.204;9.910;2022-12-11T12:54:28;16.23;;;8.63;;
19877;SDS011;10101;52.204;9.910;2022-12-11T12:56:57;14.30;;;7.67;;
19877;SDS011;10101;52.204;9.910;2022-12-11T12:59:25;12.60;;;6.87;;
19877;SDS011;10101;52.204;9.910;2022-12-11T13:01:53;15.97;;;8.03;;
19877;SDS011;10101;52.204;9.910;2022-12-11T13:04:27;17.07;;;9.30;;
19877;SDS011;10101;52.204;9.910;2022-12-11T13:07:10;18.30;;;8.87;;
19877;SDS011;10101;52.204;9.910;2022-12-11T13:09:40;20.23;;;9.57;;
19877;SDS011;10101;52.204;9.910;2022-12-11T13:12:11;16.47;;;9.07;;
19877;SDS011;10101;52.204;9.910;2022-12-11T13:14:39;16.97;;;9.67;;
19877;SDS011;10101;52.204;9.910;2022-12-11T13:17:19;18.23;;;10.07;;
19877;SDS011;10101;52.204;9.910;2022-12-11T13:19:50;15.03;;;8.00;;
19877;SDS011;10101;52.204;9.910;2022-12-11T13:22:45;18.73;;;9.50;;
19877;SDS011;10101;52.204;9.910;2022-12-11T13:25:16;17.93;;;9.43;;
19877;SDS011;10101;52.204;9.910;2022-12-11T13:27:49;16.10;;;8.67;;
19877;SDS011;10101;52.204;9.910;2022-12-11T13:30:21;20.90;;;9.77;;
19877;SDS011;10101;52.204;9.910;2022-12-11T13:32:53;23.53;;;9.43;;
19877;SDS011;10101;52.204;9.910;2022-12-11T13:35:27;19.17;;;9.40;;
19877;SDS011;10101;52.204;9.910;2022-12-11T13:37:58;18.03;;;8.97;;
19877;SDS011;10101;52.204;9.910;2022-12-11T13:40:32;20.33;;;9.27;;
19877;SDS011;10101;52.204;9.910;2022-12-11T13:43:07;17.27;;;9.33;;
19877;SDS011;10101;52.204;9.910;2022-12-11T13:45:43;17.50;;;8.57;;
19877;SDS011;10101;52.204;9.910;2022-12-11T13:48:16;16.97;;;9.03;;
19877;SDS011;10101;52.204;9.910;2022-12-11T13:50:46;15.93;;;8.57;;
19877;SDS011;10101;52.204;9.910;2022-12-11T13:53:16;19.37;;;9.60;;
19877;SDS011;10101;52.204;9.910;2022-12-11T13:55:44;17.27;;;8.93;;
19877;SDS011;10101;52.204;9.910;2022-12-11T13:58:15;16.13;;;9.13;;
19877;SDS011;10101;52.204;9.910;2022-12-11T14:00:50;16.33;;;8.77;;
19877;SDS011;10101;52.204;9.910;2022-12-11T14:03:22;14.37;;;8.27;;
19877;SDS011;10101;52.204;9.910;2022-12-11T14:05:49;16.53;;;8.87;;
19877;SDS011;10101;52.204;9.910;2022-12-11T14:08:19;15.37;;;8.60;;
19877;SDS011;10101;52.204;9.910;2022-12-11T14:10:50;19.60;;;8.57;;
19877;SDS011;10101;52.204;9.910;2022-12-11T14:13:20;17.53;;;8.97;;
19877;SDS011;10101;52.204;9.910;2022-12-11T14:15:48;17.43;;;8.90;;
19877;SDS011;10101;52.204;9.910;2022-12-11T14:18:17;14.93;;;8.43;;
19877;SDS011;10101;52.204;9.910;2022-12-11T14:20:52;14.93;;;8.23;;
19877;SDS011;10101;52.204;9.910;2022-12-11T14:23:21;16.40;;;8.73;;
19877;SDS011;10101;52.204;9.910;2022-12-11T14:25:53;17.97;;;8.60;;
19877;SDS011;10101;52.204;9.910;2022-12-11T14:28:21;16.53;;;9.13;;
19877;SDS011;10101;52.204;9.910;2022-12-11T14:30:51;17.73;;;8.33;;
19877;SDS011;10101;52.204;9.910;2022-12-11T14:33:21;17.57;;;8.37;;
19877;SDS011;10101;52.204;9.910;2022-12-11T14:35:51;16.50;;;8.40;;
19877;SDS011;10101;52.204;9.910;2022-12-11T14:38:22;15.33;;;8.00;;
19877;SDS011;10101;52.204;9.910;2022-12-11T14:40:52;17.00;;;8.53;;
19877;SDS011;10101;52.204;9.910;2022-12-11T14:43:22;18.73;;;8.97;;
19877;SDS011;10101;52.204;9.910;2022-12-11T14:45:54;17.03;;;9.47;;
19877;SDS011;10101;52.204;9.910;2022-12-11T14:48:24;15.40;;;8.23;;